sensor_id;sensor_type;location;lat;lon;timestamp;pressure;altitude;pressure_sealevel;temperature;humidity
20037;BME280;10179;42.640;23.312;2024-01-27T00:00:30;94106.25;;;8.86;38.68
20037;BME280;10179;42.640;23.312;2024-01-27T00:02:55;94006.38;;;8.22;38.47
20037;BME280;10179;42.640;23.312;2024-01-27T00:05:21;94045.06;;;8.60;37.94
20037;BME280;10179;42.640;23.312;2024-01-27T00:07:46;94071.59;;;8.77;37.72
20037;BME280;10179;42.640;23.312;2024-01-27T00:10:12;94093.75;;;8.88;37.30
20037;BME280;10179;42.640;23.312;2024-01-27T00:12:37;94098.41;;;8.86;37.57
20037;BME280;10179;42.640;23.312;2024-01-27T00:15:03;94093.34;;;8.84;37.71
20037;BME280;10179;42.640;23.312;2024-01-27T00:17:28;94089.75;;;8.78;37.45
20037;BME280;10179;42.640;23.312;2024-01-27T00:19:54;94091.34;;;8.79;37.02
20037;BME280;10179;42.640;23.312;2024-01-27T00:22:20;94079.69;;;8.82;37.14
20037;BME280;10179;42.640;23.312;2024-01-27T00:24:46;94082.06;;;8.83;37.03
20037;BME280;10179;42.640;23.312;2024-01-27T00:27:12;94078.47;;;8.84;36.84
20037;BME280;10179;42.640;23.312;2024-01-27T00:29:37;94075.63;;;8.86;36.45
20037;BME280;10179;42.640;23.312;2024-01-27T00:32:03;94093.16;;;8.86;36.46
20037;BME280;10179;42.640;23.312;2024-01-27T00:34:28;94080.06;;;8.86;36.62
20037;BME280;10179;42.640;23.312;2024-01-27T00:36:54;94046.66;;;8.68;36.39
20037;BME280;10179;42.640;23.312;2024-01-27T00:39:19;93979.41;;;8.15;35.46
20037;BME280;10179;42.640;23.312;2024-01-27T00:41:45;94084.69;;;8.97;35.27
20037;BME280;10179;42.640;23.312;2024-01-27T00:44:10;94100.19;;;9.05;35.19
20037;BME280;10179;42.640;23.312;2024-01-27T00:46:39;94065.94;;;9.00;35.25
20037;BME280;10179;42.640;23.312;2024-01-27T00:49:05;93993.09;;;8.50;35.49
20037;BME280;10179;42.640;23.312;2024-01-27T00:51:30;94083.88;;;9.16;35.22
20037;BME280;10179;42.640;23.312;2024-01-27T00:53:56;94067.38;;;9.02;33.90
20037;BME280;10179;42.640;23.312;2024-01-27T00:56:22;94077.19;;;9.20;33.54
20037;BME280;10179;42.640;23.312;2024-01-27T00:58:47;93698.19;;;6.81;33.48
20037;BME280;10179;42.640;23.312;2024-01-27T01:01:13;94017.41;;;8.91;34.03
20037;BME280;10179;42.640;23.312;2024-01-27T01:03:38;94081.81;;;9.31;34.96
20037;BME280;10179;42.640;23.312;2024-01-27T01:06:04;94057.44;;;9.24;35.07
20037;BME280;10179;42.640;23.312;2024-01-27T01:08:29;93737.72;;;7.18;33.15
20037;BME280;10179;42.640;23.312;2024-01-27T01:10:55;93994.22;;;8.88;32.63
20037;BME280;10179;42.640;23.312;2024-01-27T01:13:20;94068.28;;;9.35;33.48
20037;BME280;10179;42.640;23.312;2024-01-27T01:15:45;94076.16;;;9.35;33.38
20037;BME280;10179;42.640;23.312;2024-01-27T01:18:11;94068.69;;;9.31;33.65
20037;BME280;10179;42.640;23.312;2024-01-27T01:20:36;94027.28;;;8.95;32.92
20037;BME280;10179;42.640;23.312;2024-01-27T01:23:02;93972.56;;;8.60;32.45
20037;BME280;10179;42.640;23.312;2024-01-27T01:25:28;94026.03;;;8.98;32.58
20037;BME280;10179;42.640;23.312;2024-01-27T01:27:53;94086.63;;;9.35;32.67
20037;BME280;10179;42.640;23.312;2024-01-27T01:30:18;94070.50;;;9.38;32.56
20037;BME280;10179;42.640;23.312;2024-01-27T01:32:44;94068.69;;;9.38;32.22
20037;BME280;10179;42.640;23.312;2024-01-27T01:35:12;94040.44;;;9.33;31.77
20037;BME280;10179;42.640;23.312;2024-01-27T01:37:38;94057.78;;;9.41;31.12
20037;BME280;10179;42.640;23.312;2024-01-27T01:40:05;94053.31;;;9.48;30.57
20037;BME280;10179;42.640;23.312;2024-01-27T01:42:31;93978.28;;;9.09;30.25
20037;BME280;10179;42.640;23.312;2024-01-27T01:44:56;93807.41;;;8.04;30.09
20037;BME280;10179;42.640;23.312;2024-01-27T01:47:21;94055.66;;;9.70;30.89
20037;BME280;10179;42.640;23.312;2024-01-27T01:49:48;94045.53;;;9.73;30.63
20037;BME280;10179;42.640;23.312;2024-01-27T01:52:14;93970.28;;;9.36;30.30
20037;BME280;10179;42.640;23.312;2024-01-27T01:54:48;94020.34;;;9.72;30.44
20037;BME280;10179;42.640;23.312;2024-01-27T01:57:13;94044.47;;;9.88;30.43
20037;BME280;10179;42.640;23.312;2024-01-27T01:59:39;94031.72;;;9.91;29.70
20037;BME280;10179;42.640;23.312;2024-01-27T02:02:06;94028.13;;;9.86;28.48
20037;BME280;10179;42.640;23.312;2024-01-27T02:04:40;93976.59;;;9.66;28.55
20037;BME280;10179;42.640;23.312;2024-01-27T02:07:05;94042.94;;;10.05;28.58
20037;BME280;10179;42.640;23.312;2024-01-27T02:09:31;94037.66;;;10.12;27.45
20037;BME280;10179;42.640;23.312;2024-01-27T02:11:56;94005.78;;;10.08;28.02
20037;BME280;10179;42.640;23.312;2024-01-27T02:14:22;94031.50;;;10.24;27.92
20037;BME280;10179;42.640;23.312;2024-01-27T02:16:50;94016.16;;;10.28;27.99
20037;BME280;10179;42.640;23.312;2024-01-27T02:19:15;93915.59;;;9.77;27.46
20037;BME280;10179;42.640;23.312;2024-01-27T02:21:41;94028.31;;;10.22;27.15
20037;BME280;10179;42.640;23.312;2024-01-27T02:24:07;93927.16;;;9.95;27.62
20037;BME280;10179;42.640;23.312;2024-01-27T02:26:32;93893.81;;;9.77;28.06
20037;BME280;10179;42.640;23.312;2024-01-27T02:28:58;94014.00;;;10.50;27.99
20037;BME280;10179;42.640;23.312;2024-01-27T02:31:23;93937.75;;;10.07;27.48
20037;BME280;10179;42.640;23.312;2024-01-27T02:33:49;93998.59;;;10.54;27.86
20037;BME280;10179;42.640;23.312;2024-01-27T02:36:14;93990.91;;;10.52;28.17
20037;BME280;10179;42.640;23.312;2024-01-27T02:38:39;93937.56;;;10.08;28.13
20037;BME280;10179;42.640;23.312;2024-01-27T02:41:05;94017.19;;;10.52;27.12
20037;BME280;10179;42.640;23.312;2024-01-27T02:43:30;94012.97;;;10.51;26.73
20037;BME280;10179;42.640;23.312;2024-01-27T02:45:56;93999.09;;;10.44;26.99
20037;BME280;10179;42.640;23.312;2024-01-27T02:48:21;94009.47;;;10.57;25.93
20037;BME280;10179;42.640;23.312;2024-01-27T02:50:46;93932.03;;;10.16;25.83
20037;BME280;10179;42.640;23.312;2024-01-27T02:53:12;93998.47;;;10.67;25.72
20037;BME280;10179;42.640;23.312;2024-01-27T02:55:37;94002.84;;;10.73;25.47
20037;BME280;10179;42.640;23.312;2024-01-27T02:58:03;94010.69;;;10.80;26.63
20037;BME280;10179;42.640;23.312;2024-01-27T03:00:28;94006.03;;;10.82;27.76
20037;BME280;10179;42.640;23.312;2024-01-27T03:02:54;94015.06;;;10.86;28.53
20037;BME280;10179;42.640;23.312;2024-01-27T03:05:22;94017.47;;;10.87;29.72
20037;BME280;10179;42.640;23.312;2024-01-27T03:07:47;93891.03;;;9.97;30.74
20037;BME280;10179;42.640;23.312;2024-01-27T03:10:13;93994.59;;;10.69;31.85
20037;BME280;10179;42.640;23.312;2024-01-27T03:12:38;93947.72;;;10.23;32.56
20037;BME280;10179;42.640;23.312;2024-01-27T03:15:04;93912.69;;;9.86;33.86
20037;BME280;10179;42.640;23.312;2024-01-27T03:17:29;93966.00;;;10.11;34.91
20037;BME280;10179;42.640;23.312;2024-01-27T03:19:55;94000.44;;;10.21;35.47
20037;BME280;10179;42.640;23.312;2024-01-27T03:22:20;94017.78;;;10.29;36.03
20037;BME280;10179;42.640;23.312;2024-01-27T03:24:46;94014.78;;;10.25;36.40
20037;BME280;10179;42.640;23.312;2024-01-27T03:27:11;93937.81;;;9.68;36.92
20037;BME280;10179;42.640;23.312;2024-01-27T03:29:37;94011.38;;;10.18;38.37
20037;BME280;10179;42.640;23.312;2024-01-27T03:32:02;94008.56;;;10.13;39.34
20037;BME280;10179;42.640;23.312;2024-01-27T03:34:28;94011.19;;;10.13;40.96
20037;BME280;10179;42.640;23.312;2024-01-27T03:36:53;94014.28;;;10.03;41.70
20037;BME280;10179;42.640;23.312;2024-01-27T03:39:19;93979.19;;;9.73;42.61
20037;BME280;10179;42.640;23.312;2024-01-27T03:41:44;93972.84;;;9.87;42.58
20037;BME280;10179;42.640;23.312;2024-01-27T03:44:09;93980.44;;;9.95;43.58
20037;BME280;10179;42.640;23.312;2024-01-27T03:46:35;93883.69;;;9.17;44.39
20037;BME280;10179;42.640;23.312;2024-01-27T03:49:01;93992.00;;;9.88;44.56
20037;BME280;10179;42.640;23.312;2024-01-27T03:51:26;93991.81;;;9.83;44.80
20037;BME280;10179;42.640;23.312;2024-01-27T03:53:52;93976.94;;;9.76;44.65
20037;BME280;10179;42.640;23.312;2024-01-27T03:56:17;93978.94;;;9.74;45.01
20037;BME280;10179;42.640;23.312;2024-01-27T03:58:43;93956.91;;;9.50;45.46
20037;BME280;10179;42.640;23.312;2024-01-27T04:01:08;93972.94;;;9.67;45.35
20037;BME280;10179;42.640;23.312;2024-01-27T04:03:34;93989.50;;;9.61;45.68
20037;BME280;10179;42.640;23.312;2024-01-27T04:05:59;93860.47;;;8.89;46.24
20037;BME280;10179;42.640;23.312;2024-01-27T04:08:28;93685.81;;;7.61;45.61
20037;BME280;10179;42.640;23.312;2024-01-27T04:10:54;93989.59;;;9.48;45.92
20037;BME280;10179;42.640;23.312;2024-01-27T04:13:19;93986.38;;;9.46;46.22
20037;BME280;10179;42.640;23.312;2024-01-27T04:15:44;93983.34;;;9.49;46.96
20037;BME280;10179;42.640;23.312;2024-01-27T04:18:10;93978.50;;;9.46;47.05
20037;BME280;10179;42.640;23.312;2024-01-27T04:20:37;93956.56;;;9.33;47.46
20037;BME280;10179;42.640;23.312;2024-01-27T04:23:02;93974.47;;;9.43;47.17
20037;BME280;10179;42.640;23.312;2024-01-27T04:25:28;93975.88;;;9.46;47.31
20037;BME280;10179;42.640;23.312;2024-01-27T04:27:53;93979.88;;;9.55;47.54
20037;BME280;10179;42.640;23.312;2024-01-27T04:30:19;93980.31;;;9.52;47.27
20037;BME280;10179;42.640;23.312;2024-01-27T04:32:44;93991.56;;;9.59;47.91
20037;BME280;10179;42.640;23.312;2024-01-27T04:35:11;93914.31;;;9.23;47.90
20037;BME280;10179;42.640;23.312;2024-01-27T04:37:37;93996.75;;;9.72;47.68
20037;BME280;10179;42.640;23.312;2024-01-27T04:40:04;93898.00;;;9.21;47.65
20037;BME280;10179;42.640;23.312;2024-01-27T04:42:34;93757.19;;;8.40;47.79
20037;BME280;10179;42.640;23.312;2024-01-27T04:45:00;93978.59;;;9.96;47.81
20037;BME280;10179;42.640;23.312;2024-01-27T04:47:25;93984.47;;;9.98;47.79
20037;BME280;10179;42.640;23.312;2024-01-27T04:49:51;93975.75;;;10.04;47.95
20037;BME280;10179;42.640;23.312;2024-01-27T04:52:17;93985.59;;;10.09;48.25
20037;BME280;10179;42.640;23.312;2024-01-27T04:54:42;93961.88;;;9.97;48.20
20037;BME280;10179;42.640;23.312;2024-01-27T04:57:07;93981.78;;;10.04;48.24
20037;BME280;10179;42.640;23.312;2024-01-27T04:59:33;93988.22;;;10.09;48.57
20037;BME280;10179;42.640;23.312;2024-01-27T05:01:59;93985.97;;;10.12;48.55
20037;BME280;10179;42.640;23.312;2024-01-27T05:04:24;93986.44;;;10.02;47.76
20037;BME280;10179;42.640;23.312;2024-01-27T05:06:52;93894.47;;;9.41;48.31
20037;BME280;10179;42.640;23.312;2024-01-27T05:09:17;94001.66;;;9.94;48.91
20037;BME280;10179;42.640;23.312;2024-01-27T05:11:43;94000.69;;;9.82;48.77
20037;BME280;10179;42.640;23.312;2024-01-27T05:14:10;93985.00;;;9.75;49.31
20037;BME280;10179;42.640;23.312;2024-01-27T05:16:36;93995.25;;;9.83;49.28
20037;BME280;10179;42.640;23.312;2024-01-27T05:19:01;94003.91;;;9.90;49.56
20037;BME280;10179;42.640;23.312;2024-01-27T05:21:27;93982.63;;;9.67;49.39
20037;BME280;10179;42.640;23.312;2024-01-27T05:23:52;93968.19;;;9.51;49.72
20037;BME280;10179;42.640;23.312;2024-01-27T05:26:17;93933.25;;;9.25;50.40
20037;BME280;10179;42.640;23.312;2024-01-27T05:28:43;94008.81;;;9.73;50.92
20037;BME280;10179;42.640;23.312;2024-01-27T05:31:08;94008.97;;;9.78;51.05
20037;BME280;10179;42.640;23.312;2024-01-27T05:33:37;93985.47;;;9.65;50.95
20037;BME280;10179;42.640;23.312;2024-01-27T05:36:04;94022.09;;;9.78;51.33
20037;BME280;10179;42.640;23.312;2024-01-27T05:38:30;93984.19;;;9.74;51.27
20037;BME280;10179;42.640;23.312;2024-01-27T05:40:57;93554.16;;;6.98;50.84
20037;BME280;10179;42.640;23.312;2024-01-27T05:43:22;93974.81;;;9.60;50.91
20037;BME280;10179;42.640;23.312;2024-01-27T05:45:48;93999.94;;;9.74;50.75
20037;BME280;10179;42.640;23.312;2024-01-27T05:48:14;94014.47;;;9.77;51.02
20037;BME280;10179;42.640;23.312;2024-01-27T05:50:42;94015.88;;;9.79;50.98
20037;BME280;10179;42.640;23.312;2024-01-27T05:53:07;93996.34;;;9.69;50.85
20037;BME280;10179;42.640;23.312;2024-01-27T05:55:33;94017.63;;;9.86;51.13
20037;BME280;10179;42.640;23.312;2024-01-27T05:57:59;94027.69;;;9.89;50.88
20037;BME280;10179;42.640;23.312;2024-01-27T06:00:24;94056.34;;;9.90;50.66
20037;BME280;10179;42.640;23.312;2024-01-27T06:02:50;93979.50;;;9.51;50.69
20037;BME280;10179;42.640;23.312;2024-01-27T06:05:16;94000.78;;;9.68;51.08
20037;BME280;10179;42.640;23.312;2024-01-27T06:07:42;94021.00;;;9.93;51.32
20037;BME280;10179;42.640;23.312;2024-01-27T06:10:08;93641.22;;;7.56;51.16
20037;BME280;10179;42.640;23.312;2024-01-27T06:12:34;94029.19;;;10.10;51.04
20037;BME280;10179;42.640;23.312;2024-01-27T06:15:00;94021.34;;;10.03;50.75
20037;BME280;10179;42.640;23.312;2024-01-27T06:17:25;94048.91;;;10.25;50.32
20037;BME280;10179;42.640;23.312;2024-01-27T06:19:51;93970.41;;;9.86;50.44
20037;BME280;10179;42.640;23.312;2024-01-27T06:22:16;94015.00;;;10.17;50.31
20037;BME280;10179;42.640;23.312;2024-01-27T06:24:45;94028.06;;;10.31;49.86
20037;BME280;10179;42.640;23.312;2024-01-27T06:27:11;94072.19;;;10.47;49.55
20037;BME280;10179;42.640;23.312;2024-01-27T06:29:37;94042.28;;;10.48;49.37
20037;BME280;10179;42.640;23.312;2024-01-27T06:32:02;94052.13;;;10.52;49.25
20037;BME280;10179;42.640;23.312;2024-01-27T06:34:28;94027.50;;;10.29;49.11
20037;BME280;10179;42.640;23.312;2024-01-27T06:36:54;93976.03;;;9.89;48.86
20037;BME280;10179;42.640;23.312;2024-01-27T06:39:19;94083.53;;;10.41;48.61
20037;BME280;10179;42.640;23.312;2024-01-27T06:41:46;94082.91;;;10.39;48.37
20037;BME280;10179;42.640;23.312;2024-01-27T06:44:12;93703.19;;;8.01;48.09
20037;BME280;10179;42.640;23.312;2024-01-27T06:46:38;94057.13;;;10.36;48.09
20037;BME280;10179;42.640;23.312;2024-01-27T06:49:03;94061.69;;;10.47;47.59
20037;BME280;10179;42.640;23.312;2024-01-27T06:51:29;94078.69;;;10.38;47.09
20037;BME280;10179;42.640;23.312;2024-01-27T06:53:54;94110.72;;;10.53;46.67
20037;BME280;10179;42.640;23.312;2024-01-27T06:56:20;94107.06;;;10.54;46.19
20037;BME280;10179;42.640;23.312;2024-01-27T06:58:45;94089.81;;;10.40;45.85
20037;BME280;10179;42.640;23.312;2024-01-27T07:01:11;94071.94;;;10.17;46.02
20037;BME280;10179;42.640;23.312;2024-01-27T07:03:36;94112.59;;;10.46;46.03
20037;BME280;10179;42.640;23.312;2024-01-27T07:06:02;94077.53;;;10.34;45.89
20037;BME280;10179;42.640;23.312;2024-01-27T07:08:27;94068.69;;;10.21;45.67
20037;BME280;10179;42.640;23.312;2024-01-27T07:10:53;94101.69;;;10.42;45.49
20037;BME280;10179;42.640;23.312;2024-01-27T07:13:18;94062.19;;;10.31;45.35
20037;BME280;10179;42.640;23.312;2024-01-27T07:15:44;94015.09;;;10.04;45.09
20037;BME280;10179;42.640;23.312;2024-01-27T07:18:10;94100.22;;;10.53;44.69
20037;BME280;10179;42.640;23.312;2024-01-27T07:20:36;94101.69;;;10.42;44.24
20037;BME280;10179;42.640;23.312;2024-01-27T07:23:01;94097.59;;;10.53;44.44
20037;BME280;10179;42.640;23.312;2024-01-27T07:25:27;94107.28;;;10.52;44.64
20037;BME280;10179;42.640;23.312;2024-01-27T07:27:53;94095.63;;;10.42;44.33
20037;BME280;10179;42.640;23.312;2024-01-27T07:30:19;94092.59;;;10.45;44.07
20037;BME280;10179;42.640;23.312;2024-01-27T07:32:44;94126.94;;;10.43;43.84
20037;BME280;10179;42.640;23.312;2024-01-27T07:35:10;94129.19;;;10.40;43.92
20037;BME280;10179;42.640;23.312;2024-01-27T07:37:35;94149.44;;;10.33;43.81
20037;BME280;10179;42.640;23.312;2024-01-27T07:40:01;94007.03;;;9.22;44.10
20037;BME280;10179;42.640;23.312;2024-01-27T07:42:27;93867.88;;;8.34;43.87
20037;BME280;10179;42.640;23.312;2024-01-27T07:44:53;94193.47;;;10.17;43.91
20037;BME280;10179;42.640;23.312;2024-01-27T07:47:18;94199.34;;;10.13;43.80
20037;BME280;10179;42.640;23.312;2024-01-27T07:49:44;94111.41;;;9.52;43.92
20037;BME280;10179;42.640;23.312;2024-01-27T07:52:10;94209.50;;;9.96;44.10
20037;BME280;10179;42.640;23.312;2024-01-27T07:54:36;94165.41;;;9.66;44.24
20037;BME280;10179;42.640;23.312;2024-01-27T07:57:05;94196.66;;;9.74;44.87
20037;BME280;10179;42.640;23.312;2024-01-27T07:59:31;94194.03;;;9.74;44.94
20037;BME280;10179;42.640;23.312;2024-01-27T08:01:56;94139.84;;;9.42;44.72
20037;BME280;10179;42.640;23.312;2024-01-27T08:04:22;94199.69;;;9.71;44.48
20037;BME280;10179;42.640;23.312;2024-01-27T08:06:49;94176.97;;;9.39;44.42
20037;BME280;10179;42.640;23.312;2024-01-27T08:09:16;94216.25;;;9.65;44.72
20037;BME280;10179;42.640;23.312;2024-01-27T08:11:42;94190.84;;;9.52;44.57
20037;BME280;10179;42.640;23.312;2024-01-27T08:14:07;94217.47;;;9.63;44.25
20037;BME280;10179;42.640;23.312;2024-01-27T08:16:33;94212.41;;;9.61;44.63
20037;BME280;10179;42.640;23.312;2024-01-27T08:18:58;94207.16;;;9.61;44.17
20037;BME280;10179;42.640;23.312;2024-01-27T08:21:24;94186.38;;;9.66;44.31
20037;BME280;10179;42.640;23.312;2024-01-27T08:23:49;94170.25;;;9.69;43.85
20037;BME280;10179;42.640;23.312;2024-01-27T08:26:15;94199.88;;;9.76;43.23
20037;BME280;10179;42.640;23.312;2024-01-27T08:28:40;94197.03;;;9.78;42.44
20037;BME280;10179;42.640;23.312;2024-01-27T08:31:06;94093.72;;;9.27;42.20
20037;BME280;10179;42.640;23.312;2024-01-27T08:33:32;94174.59;;;9.89;41.99
20037;BME280;10179;42.640;23.312;2024-01-27T08:35:58;94171.16;;;9.95;41.89
20037;BME280;10179;42.640;23.312;2024-01-27T08:38:23;94182.28;;;9.97;41.75
20037;BME280;10179;42.640;23.312;2024-01-27T08:40:48;94178.25;;;9.88;42.20
20037;BME280;10179;42.640;23.312;2024-01-27T08:43:14;94156.50;;;9.74;42.42
20037;BME280;10179;42.640;23.312;2024-01-27T08:45:40;94160.41;;;10.03;42.54
20037;BME280;10179;42.640;23.312;2024-01-27T08:48:06;94168.72;;;10.00;42.35
20037;BME280;10179;42.640;23.312;2024-01-27T08:50:32;94177.34;;;10.07;42.48
20037;BME280;10179;42.640;23.312;2024-01-27T08:52:58;94176.13;;;10.16;42.02
20037;BME280;10179;42.640;23.312;2024-01-27T08:55:23;94071.41;;;9.63;42.40
20037;BME280;10179;42.640;23.312;2024-01-27T08:57:53;94053.53;;;9.85;41.59
20037;BME280;10179;42.640;23.312;2024-01-27T09:00:19;94146.25;;;10.56;41.21
20037;BME280;10179;42.640;23.312;2024-01-27T09:02:45;94141.78;;;10.56;41.03
20037;BME280;10179;42.640;23.312;2024-01-27T09:05:10;94101.00;;;10.29;40.70
20037;BME280;10179;42.640;23.312;2024-01-27T09:07:36;94128.97;;;10.73;40.08
20037;BME280;10179;42.640;23.312;2024-01-27T09:10:02;94090.78;;;10.70;39.09
20037;BME280;10179;42.640;23.312;2024-01-27T09:12:28;94117.66;;;10.97;38.85
20037;BME280;10179;42.640;23.312;2024-01-27T09:14:53;94077.22;;;10.73;38.90
20037;BME280;10179;42.640;23.312;2024-01-27T09:17:20;94126.22;;;11.11;39.25
20037;BME280;10179;42.640;23.312;2024-01-27T09:19:46;94112.06;;;11.12;39.14
20037;BME280;10179;42.640;23.312;2024-01-27T09:22:12;94117.78;;;11.09;39.54
20037;BME280;10179;42.640;23.312;2024-01-27T09:24:39;94133.31;;;11.11;39.61
20037;BME280;10179;42.640;23.312;2024-01-27T09:27:04;94140.81;;;11.07;39.88
20037;BME280;10179;42.640;23.312;2024-01-27T09:29:30;94124.06;;;11.02;39.80
20037;BME280;10179;42.640;23.312;2024-01-27T09:31:56;94137.59;;;11.05;39.94
20037;BME280;10179;42.640;23.312;2024-01-27T09:34:21;94113.91;;;10.87;40.37
20037;BME280;10179;42.640;23.312;2024-01-27T09:36:47;94136.84;;;10.98;40.25
20037;BME280;10179;42.640;23.312;2024-01-27T09:39:12;94071.44;;;10.65;39.99
20037;BME280;10179;42.640;23.312;2024-01-27T09:41:38;94154.28;;;11.17;39.99
20037;BME280;10179;42.640;23.312;2024-01-27T09:44:04;94150.47;;;11.13;39.62
20037;BME280;10179;42.640;23.312;2024-01-27T09:46:31;94162.91;;;11.25;39.69
20037;BME280;10179;42.640;23.312;2024-01-27T09:48:57;94109.81;;;10.91;39.64
20037;BME280;10179;42.640;23.312;2024-01-27T09:51:24;94180.91;;;11.28;39.65
20037;BME280;10179;42.640;23.312;2024-01-27T09:53:49;94173.34;;;11.13;39.73
20037;BME280;10179;42.640;23.312;2024-01-27T09:56:16;94172.03;;;10.97;39.72
20037;BME280;10179;42.640;23.312;2024-01-27T09:58:46;94174.50;;;10.92;40.19
20037;BME280;10179;42.640;23.312;2024-01-27T10:01:12;94167.97;;;10.69;40.23
20037;BME280;10179;42.640;23.312;2024-01-27T10:03:41;94209.63;;;10.97;40.43
20037;BME280;10179;42.640;23.312;2024-01-27T10:06:09;94177.88;;;10.74;40.76
20037;BME280;10179;42.640;23.312;2024-01-27T10:08:35;94194.03;;;10.78;40.89
20037;BME280;10179;42.640;23.312;2024-01-27T10:11:07;94217.09;;;10.69;41.16
20037;BME280;10179;42.640;23.312;2024-01-27T10:13:33;94218.53;;;10.65;41.29
20037;BME280;10179;42.640;23.312;2024-01-27T10:16:08;94207.97;;;10.40;41.56
20037;BME280;10179;42.640;23.312;2024-01-27T10:18:35;94237.38;;;10.55;41.40
20037;BME280;10179;42.640;23.312;2024-01-27T10:21:18;94238.97;;;10.56;41.60
20037;BME280;10179;42.640;23.312;2024-01-27T10:23:45;94253.56;;;10.45;41.75
20037;BME280;10179;42.640;23.312;2024-01-27T10:26:11;94245.94;;;10.31;42.06
20037;BME280;10179;42.640;23.312;2024-01-27T10:28:37;94237.91;;;10.25;42.29
20037;BME280;10179;42.640;23.312;2024-01-27T10:31:12;94257.66;;;10.28;42.41
20037;BME280;10179;42.640;23.312;2024-01-27T10:33:38;94258.09;;;10.18;42.48
20037;BME280;10179;42.640;23.312;2024-01-27T10:36:04;94249.00;;;10.14;42.48
20037;BME280;10179;42.640;23.312;2024-01-27T10:38:39;94247.22;;;10.15;42.56
20037;BME280;10179;42.640;23.312;2024-01-27T10:41:09;94249.84;;;10.15;42.29
20037;BME280;10179;42.640;23.312;2024-01-27T10:43:36;94266.63;;;10.00;42.52
20037;BME280;10179;42.640;23.312;2024-01-27T10:46:07;94182.19;;;9.52;42.50
20037;BME280;10179;42.640;23.312;2024-01-27T10:48:36;94173.91;;;9.48;42.59
20037;BME280;10179;42.640;23.312;2024-01-27T10:51:09;94262.19;;;9.94;42.67
20037;BME280;10179;42.640;23.312;2024-01-27T10:53:36;94262.22;;;9.88;42.73
20037;BME280;10179;42.640;23.312;2024-01-27T10:56:04;94254.56;;;9.79;42.99
20037;BME280;10179;42.640;23.312;2024-01-27T10:58:36;94258.41;;;9.70;43.31
20037;BME280;10179;42.640;23.312;2024-01-27T11:01:13;94174.75;;;9.16;43.21
20037;BME280;10179;42.640;23.312;2024-01-27T11:03:40;94268.28;;;9.68;43.44
20037;BME280;10179;42.640;23.312;2024-01-27T11:06:07;94262.22;;;9.61;43.51
20037;BME280;10179;42.640;23.312;2024-01-27T11:08:37;94187.44;;;9.12;43.62
20037;BME280;10179;42.640;23.312;2024-01-27T11:11:03;94291.28;;;9.66;43.84
20037;BME280;10179;42.640;23.312;2024-01-27T11:13:33;94223.53;;;9.30;43.70
20037;BME280;10179;42.640;23.312;2024-01-27T11:15:59;94262.63;;;9.58;43.79
20037;BME280;10179;42.640;23.312;2024-01-27T11:18:25;94277.97;;;9.61;43.88
20037;BME280;10179;42.640;23.312;2024-01-27T11:20:55;94274.75;;;9.66;43.88
20037;BME280;10179;42.640;23.312;2024-01-27T11:23:31;94272.72;;;9.61;44.29
20037;BME280;10179;42.640;23.312;2024-01-27T11:26:07;94274.53;;;9.61;44.27
20037;BME280;10179;42.640;23.312;2024-01-27T11:28:33;94277.16;;;9.54;44.21
20037;BME280;10179;42.640;23.312;2024-01-27T11:31:03;94198.53;;;9.07;44.55
20037;BME280;10179;42.640;23.312;2024-01-27T11:33:29;94230.78;;;9.21;44.16
20037;BME280;10179;42.640;23.312;2024-01-27T11:36:02;94283.41;;;9.53;44.24
20037;BME280;10179;42.640;23.312;2024-01-27T11:38:31;94283.63;;;9.45;44.33
20037;BME280;10179;42.640;23.312;2024-01-27T11:40:57;94176.19;;;8.85;44.43
20037;BME280;10179;42.640;23.312;2024-01-27T11:43:22;94288.47;;;9.48;44.47
20037;BME280;10179;42.640;23.312;2024-01-27T11:45:58;94268.31;;;9.42;44.71
20037;BME280;10179;42.640;23.312;2024-01-27T11:48:24;94162.66;;;8.68;44.39
20037;BME280;10179;42.640;23.312;2024-01-27T11:51:11;94288.06;;;9.64;44.04
20037;BME280;10179;42.640;23.312;2024-01-27T11:53:37;94288.06;;;9.51;44.08
20037;BME280;10179;42.640;23.312;2024-01-27T11:56:03;94268.50;;;9.47;43.90
20037;BME280;10179;42.640;23.312;2024-01-27T11:58:30;94259.63;;;9.35;43.65
20037;BME280;10179;42.640;23.312;2024-01-27T12:00:56;94278.38;;;9.58;43.69
20037;BME280;10179;42.640;23.312;2024-01-27T12:03:22;94235.63;;;9.24;43.61
20037;BME280;10179;42.640;23.312;2024-01-27T12:05:48;94280.19;;;9.64;43.42
20037;BME280;10179;42.640;23.312;2024-01-27T12:08:14;94258.63;;;9.49;43.51
20037;BME280;10179;42.640;23.312;2024-01-27T12:10:39;94291.69;;;9.76;43.31
20037;BME280;10179;42.640;23.312;2024-01-27T12:13:05;94290.84;;;9.83;43.36
20037;BME280;10179;42.640;23.312;2024-01-27T12:15:30;94298.53;;;9.84;43.01
20037;BME280;10179;42.640;23.312;2024-01-27T12:17:56;94316.28;;;9.89;43.28
20037;BME280;10179;42.640;23.312;2024-01-27T12:20:25;94110.50;;;8.73;42.82
20037;BME280;10179;42.640;23.312;2024-01-27T12:23:02;94295.69;;;9.99;42.33
20037;BME280;10179;42.640;23.312;2024-01-27T12:25:27;94302.56;;;9.93;42.49
20037;BME280;10179;42.640;23.312;2024-01-27T12:27:53;94302.97;;;9.97;42.05
20037;BME280;10179;42.640;23.312;2024-01-27T12:30:18;94300.53;;;10.02;41.95
20037;BME280;10179;42.640;23.312;2024-01-27T12:32:46;94313.66;;;10.02;41.19
20037;BME280;10179;42.640;23.312;2024-01-27T12:35:12;94295.69;;;9.99;41.02
20037;BME280;10179;42.640;23.312;2024-01-27T12:37:38;94322.72;;;9.93;41.06
20037;BME280;10179;42.640;23.312;2024-01-27T12:40:20;94315.69;;;9.93;41.23
20037;BME280;10179;42.640;23.312;2024-01-27T12:42:47;94309.44;;;9.88;41.20
20037;BME280;10179;42.640;23.312;2024-01-27T12:45:12;94252.19;;;9.45;41.04
20037;BME280;10179;42.640;23.312;2024-01-27T12:47:38;94252.97;;;9.39;41.17
20037;BME280;10179;42.640;23.312;2024-01-27T12:50:05;94331.22;;;9.82;41.17